WetterOnline ( https://www.wetteronline.at )

Wetter aktuell Kempten/Allgäu

Aktuelles Wetter: Kempten (705m)

6-stündlich | Neueste Meldungen
Ortszeit Temperatur Wetter
Sa, 21.09. 20:00 13.5° C wolkenlos
Sa, 21.09. 14:00 18.9° C wolkenlos
Sa, 21.09. 8:00 3.8° C wolkenlos
Sa, 21.09. 2:00 3.9° C wolkig
Fr, 20.09. 20:00 10.4° C wolkig
Fr, 20.09. 14:00 15.0° C leicht bewölkt
Fr, 20.09. 8:00 2.1° C leicht bewölkt
Fr, 20.09. 2:00 3.8° C wolkig
Ortszeit Temperatur Wetter
So, 22.09. 1:30 8.7° C wolkig
So, 22.09. 1:20 8.7° C wolkig
So, 22.09. 1:10 8.7° C wolkig
So, 22.09. 1:00 8.1° C wolkig
So, 22.09. 0:50 8.1° C wolkig
So, 22.09. 0:40 8.3° C wolkig
So, 22.09. 0:30 8.5° C wolkig
So, 22.09. 0:00 8.7° C wolkig
Sa, 21.09. 23:30 8.6° C wolkig
Sa, 21.09. 23:00 8.8° C wolkig
Sa, 21.09. 22:30 9.0° C leicht bewölkt
Ortszeit Relative Feuchte Sichtweite
Sa, 21.09. 20:00 83% 27 km
Sa, 21.09. 14:00 53% 21 km
Sa, 21.09. 8:00 97% 11 km
Sa, 21.09. 2:00 93% 14 km
Fr, 20.09. 20:00 67% 40 km
Fr, 20.09. 14:00 43% 21 km
Fr, 20.09. 8:00 95% 14 km
Fr, 20.09. 2:00 91% 35 km
Ortszeit Relative Feuchte Sichtweite
So, 22.09. 1:30 96% 11 km
So, 22.09. 1:20 96% -
So, 22.09. 1:10 97% -
So, 22.09. 1:00 96% 7 km
So, 22.09. 0:50 96% -
So, 22.09. 0:40 95% -
So, 22.09. 0:30 95% 11 km
So, 22.09. 0:00 94% 14 km
Sa, 21.09. 23:30 94% 15 km
Sa, 21.09. 23:00 94% 17 km
Sa, 21.09. 22:30 93% 18 km
Ortszeit Niederschlagsmenge Niederschlagsart
Sa, 21.09. 20:00 0.0 l/m2 in 12 Std. -
Sa, 21.09. 14:00 0.0 l/m2 in 6 Std. -
Sa, 21.09. 8:00 0.0 l/m2 in 12 Std. -
Sa, 21.09. 2:00 0.0 l/m2 in 6 Std. -
Fr, 20.09. 20:00 0.0 l/m2 in 12 Std. -
Fr, 20.09. 14:00 0.0 l/m2 in 6 Std. -
Fr, 20.09. 8:00 0.0 l/m2 in 12 Std. -
Fr, 20.09. 2:00 0.0 l/m2 in 6 Std. -
Ortszeit Niederschlagsmenge Niederschlagsart
So, 22.09. 1:30 0.0 l/m2 in 1 Std. -
So, 22.09. 1:20 keine Meldung -
So, 22.09. 1:10 keine Meldung -
So, 22.09. 1:00 0.0 l/m2 in 1 Std. -
So, 22.09. 0:50 keine Meldung -
So, 22.09. 0:40 keine Meldung -
So, 22.09. 0:30 0.0 l/m2 in 1 Std. -
So, 22.09. 0:00 0.0 l/m2 in 1 Std. -
Sa, 21.09. 23:30 0.0 l/m2 in 1 Std. -
Sa, 21.09. 23:00 0.0 l/m2 in 1 Std. -
Sa, 21.09. 22:30 0.0 l/m2 in 1 Std. -
Ortszeit Stärke Spitze Richtung
km/h Bft. km/h Grad Sektor
Sa, 21.09. 20:00 2 1 19 10° N
Sa, 21.09. 14:00 7 2 14 30° NO
Sa, 21.09. 8:00 7 2 14 110° O
Sa, 21.09. 2:00 4 1 14 100° O
Fr, 20.09. 20:00 4 1 25 40° NO
Fr, 20.09. 14:00 9 2 22 50° NO
Fr, 20.09. 8:00 2 1 7 90° O
Fr, 20.09. 2:00 0 0 14 - -
Ortszeit Stärke Spitze Richtung
km/h Bft. km/h Grad Sektor
So, 22.09. 1:30 7 2 11 120° SO
So, 22.09. 1:20 7 2 - 120° SO
So, 22.09. 1:10 7 2 - 110° O
So, 22.09. 1:00 7 2 11 120° SO
So, 22.09. 0:50 7 2 - 120° SO
So, 22.09. 0:40 6 1 - 110° O
So, 22.09. 0:30 4 1 7 110° O
So, 22.09. 0:00 6 1 9 100° O
Sa, 21.09. 23:30 7 2 11 110° O
Sa, 21.09. 23:00 4 1 7 130° SO
Sa, 21.09. 22:30 4 1 7 110° O
Ortszeit Untergrenze Bedeckung Gattung
total tief tief mittel hoch
Sa, 21.09. 20:00 - 0/8 0/8 - - -
Sa, 21.09. 14:00 - 0/8 0/8 - - -
Sa, 21.09. 8:00 - 0/8 0/8 - - -
Sa, 21.09. 2:00 10500 m 8/8 0/8 - - -
Fr, 20.09. 20:00 8400 m 8/8 0/8 - - -
Fr, 20.09. 14:00 8100 m 8/8 0/8 - - -
Fr, 20.09. 8:00 10500 m 5/8 0/8 - - -
Fr, 20.09. 2:00 10500 m 7/8 0/8 - - -
Ortszeit Bedeckungsgrad in Achtel und Wolkenuntergrenze
So, 22.09. 1:30 8(8400m)
So, 22.09. 1:20 8(8400m)
So, 22.09. 1:10 8(8700m)
So, 22.09. 1:00 8(8700m)
So, 22.09. 0:50 8(8700m)
So, 22.09. 0:40 8(9000m)
So, 22.09. 0:30 8(9000m)
So, 22.09. 0:00 8(9000m)
Sa, 21.09. 23:30 8(9000m)
Sa, 21.09. 23:00 8(9000m)
Sa, 21.09. 22:30 3(10500m)
Ortszeit Luftdruck NN (hPa) Tendenz (hPa in 3 Std.)
Sa, 21.09. 20:00 1016 - 0,8
Sa, 21.09. 14:00 1018 - 1,4
Sa, 21.09. 8:00 1024 0,0
Sa, 21.09. 2:00 1026 - 0,9
Fr, 20.09. 20:00 1025 0,0
Fr, 20.09. 14:00 1025 - 0,8
Fr, 20.09. 8:00 1029 0,0
Fr, 20.09. 2:00 1030 - 0,3
Ortszeit Luftdruck NN (hPa) Tendenz (hPa in 3 Std.)
So, 22.09. 1:30 1016 - 1,5
So, 22.09. 1:20 1016 keine Meldung
So, 22.09. 1:10 1016 keine Meldung
So, 22.09. 1:00 1016 - 1,2
So, 22.09. 0:50 1016 keine Meldung
So, 22.09. 0:40 1016 keine Meldung
So, 22.09. 0:30 1016 - 1,3
So, 22.09. 0:00 1017 - 0,8
Sa, 21.09. 23:30 1017 - 0,4
Sa, 21.09. 23:00 1018 - 0,1
Sa, 21.09. 22:30 1018 - 0,1
Ortszeit Schneehöhe (cm)
Sa, 21.09. 20:00 -
Sa, 21.09. 14:00 -
Sa, 21.09. 8:00 -
Sa, 21.09. 2:00 -
Fr, 20.09. 20:00 -
Fr, 20.09. 14:00 -
Fr, 20.09. 8:00 -
Fr, 20.09. 2:00 -
Ortszeit Schneehöhe (cm)
So, 22.09. 1:30 -
So, 22.09. 1:20 -
So, 22.09. 1:10 -
So, 22.09. 1:00 -
So, 22.09. 0:50 -
So, 22.09. 0:40 -
So, 22.09. 0:30 -
So, 22.09. 0:00 -
Sa, 21.09. 23:30 -
Sa, 21.09. 23:00 -
Sa, 21.09. 22:30 -
Link zu dieser Seite / Seite empfehlen

Das Wetter in ...